Time;durP1;ratioP1;P1;durP2;ratioP2;P2;SDS_P1;SDS_P2;PMS_P1;PMS_P2;Temp;Humidity;BMP_temperature;BMP_pressure;BME280_temperature;BME280_humidity;BME280_pressure;Samples;Min_cycle;Max_cycle;Signal;HPM_P1;HPM_P2
2022/08/15 00:02:11;;;;;;;3.42;3.33;;;;;;;;;;10487578;28;20242;-71
2022/08/15 00:07:13;;;;;;;3.03;2.92;;;;;;;;;;10455289;28;20241;-71
2022/08/15 00:12:14;;;;;;;3.47;3.38;;;;;;;;;;10481084;28;20214;-71
2022/08/15 00:17:15;;;;;;;3.63;3.53;;;;;;;;;;10479110;28;20217;-72
2022/08/15 00:22:19;;;;;;;3.58;3.47;;;;;;;;;;10464294;28;20304;-71
2022/08/15 00:27:23;;;;;;;4.13;3.92;;;;;;;;;;10491521;28;20214;-72
2022/08/15 00:32:25;;;;;;;4.55;4.40;;;;;;;;;;10495125;28;20218;-72
2022/08/15 00:37:26;;;;;;;3.97;3.72;;;;;;;;;;10477662;28;20241;-71
2022/08/15 00:42:27;;;;;;;5.32;5.00;;;;;;;;;;10477426;28;20350;-71
2022/08/15 00:47:29;;;;;;;4.57;4.38;;;;;;;;;;10484731;28;20273;-71
2022/08/15 00:52:32;;;;;;;4.55;4.35;;;;;;;;;;10490743;28;20272;-71
2022/08/15 00:57:35;;;;;;;4.18;4.07;;;;;;;;;;10488543;28;20226;-72
2022/08/15 01:02:37;;;;;;;4.85;4.55;;;;;;;;;;10496898;28;20810;-71
2022/08/15 01:07:38;;;;;;;4.70;4.60;;;;;;;;;;10492025;28;20213;-72
2022/08/15 01:12:39;;;;;;;5.10;4.90;;;;;;;;;;10456719;28;20222;-72
2022/08/15 01:17:40;;;;;;;4.28;4.10;;;;;;;;;;10478130;28;20215;-71
2022/08/15 01:22:47;;;;;;;5.07;4.80;;;;;;;;;;10474761;28;20587;-71
2022/08/15 01:27:52;;;;;;;5.22;4.93;;;;;;;;;;10461673;28;20292;-71
2022/08/15 01:32:55;;;;;;;5.30;4.90;;;;;;;;;;10466522;28;20263;-72
2022/08/15 01:37:57;;;;;;;4.75;4.45;;;;;;;;;;10461423;28;20221;-71
2022/08/15 01:42:58;;;;;;;4.55;4.25;;;;;;;;;;10489326;28;20217;-71
2022/08/15 01:47:59;;;;;;;4.53;4.32;;;;;;;;;;10451369;28;20329;-71
2022/08/15 01:53:10;;;;;;;5.05;4.75;;;;;;;;;;10457775;28;20708;-72
2022/08/15 01:58:16;;;;;;;5.22;4.80;;;;;;;;;;10454702;28;20214;-71
2022/08/15 02:03:17;;;;;;;5.32;5.05;;;;;;;;;;10477540;28;20226;-72
2022/08/15 02:08:19;;;;;;;4.55;4.25;;;;;;;;;;10466916;28;20302;-72
2022/08/15 02:13:21;;;;;;;4.60;4.40;;;;;;;;;;10447084;28;20238;-73
2022/08/15 02:18:22;;;;;;;4.85;4.55;;;;;;;;;;10466340;28;20263;-73
2022/08/15 02:23:26;;;;;;;4.68;4.47;;;;;;;;;;10458093;28;20202;-72
2022/08/15 02:28:28;;;;;;;4.63;4.32;;;;;;;;;;10453706;28;20202;-73
2022/08/15 02:33:33;;;;;;;4.32;4.22;;;;;;;;;;10456258;28;20556;-72
2022/08/15 02:38:34;;;;;;;5.00;4.70;;;;;;;;;;10476186;28;20225;-71
2022/08/15 02:43:40;;;;;;;5.00;4.70;;;;;;;;;;10477904;28;21124;-72
2022/08/15 02:48:41;;;;;;;4.78;4.55;;;;;;;;;;10460858;28;20217;-72
2022/08/15 02:53:47;;;;;;;5.32;5.00;;;;;;;;;;10457559;28;20218;-73
2022/08/15 02:58:49;;;;;;;5.47;5.10;;;;;;;;;;10460705;28;20295;-73
2022/08/15 03:03:52;;;;;;;4.70;4.40;;;;;;;;;;10474153;28;20724;-72
2022/08/15 03:08:54;;;;;;;5.43;5.00;;;;;;;;;;10476206;28;20263;-73
2022/08/15 03:13:55;;;;;;;4.88;4.65;;;;;;;;;;10477704;28;20233;-72
2022/08/15 03:18:56;;;;;;;4.65;4.35;;;;;;;;;;10483149;28;20755;-73
2022/08/15 03:23:59;;;;;;;4.78;4.47;;;;;;;;;;10455232;28;20364;-72
2022/08/15 03:29:01;;;;;;;4.93;4.53;;;;;;;;;;10452611;28;20716;-72
2022/08/15 03:34:03;;;;;;;5.05;4.75;;;;;;;;;;10470603;28;20244;-73
2022/08/15 03:39:05;;;;;;;4.45;4.28;;;;;;;;;;10450783;28;20241;-72
2022/08/15 03:44:07;;;;;;;4.82;4.57;;;;;;;;;;10490124;28;20213;-73
2022/08/15 03:49:10;;;;;;;4.68;4.40;;;;;;;;;;10490055;28;20221;-72
2022/08/15 03:54:14;;;;;;;4.57;4.38;;;;;;;;;;10458819;28;20221;-72
2022/08/15 03:59:17;;;;;;;5.10;4.80;;;;;;;;;;10476155;28;20217;-74
2022/08/15 04:04:18;;;;;;;4.65;4.45;;;;;;;;;;10474746;28;20232;-74
2022/08/15 04:09:21;;;;;;;5.30;5.00;;;;;;;;;;10462988;28;20300;-73
2022/08/15 04:14:23;;;;;;;5.60;5.13;;;;;;;;;;10472485;28;20222;-73
2022/08/15 04:19:24;;;;;;;4.80;4.57;;;;;;;;;;10483600;28;20214;-73
2022/08/15 04:24:25;;;;;;;5.35;5.05;;;;;;;;;;10479070;28;20210;-73
2022/08/15 04:29:27;;;;;;;4.88;4.68;;;;;;;;;;10460302;28;20214;-72
2022/08/15 04:34:29;;;;;;;5.45;5.15;;;;;;;;;;10481140;28;20210;-73
2022/08/15 04:39:30;;;;;;;5.75;5.35;;;;;;;;;;10467302;28;20241;-73
2022/08/15 04:44:37;;;;;;;5.80;5.40;;;;;;;;;;10476564;28;20206;-63
2022/08/15 04:49:39;;;;;;;5.45;5.05;;;;;;;;;;10499246;28;20282;-63
2022/08/15 04:54:40;;;;;;;5.43;5.13;;;;;;;;;;10502206;28;20212;-62
2022/08/15 04:59:49;;;;;;;4.90;4.70;;;;;;;;;;10477553;28;20210;-63
2022/08/15 05:04:55;;;;;;;4.70;4.40;;;;;;;;;;10464643;28;20328;-62
2022/08/15 05:09:57;;;;;;;4.90;4.70;;;;;;;;;;10472078;28;20230;-63
2022/08/15 05:14:58;;;;;;;5.05;4.75;;;;;;;;;;10472603;28;20267;-63
2022/08/15 05:19:59;;;;;;;5.53;5.13;;;;;;;;;;10476541;28;20249;-63
2022/08/15 05:25:01;;;;;;;5.07;4.82;;;;;;;;;;10481634;28;20210;-71
2022/08/15 05:30:03;;;;;;;5.43;5.10;;;;;;;;;;10465864;28;20229;-72
2022/08/15 05:35:04;;;;;;;5.18;4.88;;;;;;;;;;10482271;28;20182;-73
2022/08/15 05:40:07;;;;;;;6.03;5.43;;;;;;;;;;10495788;28;20213;-71
2022/08/15 05:45:23;;;;;;;6.65;6.15;;;;;;;;;;10468754;28;20233;-72
2022/08/15 05:50:27;;;;;;;5.63;5.30;;;;;;;;;;10425087;28;20213;-72
2022/08/15 05:55:40;;;;;;;6.40;5.95;;;;;;;;;;10462897;28;20180;-72
2022/08/15 06:00:44;;;;;;;6.78;6.22;;;;;;;;;;10475370;28;20340;-72
2022/08/15 06:05:49;;;;;;;6.30;5.80;;;;;;;;;;10465687;28;20221;-71
2022/08/15 06:10:54;;;;;;;6.35;5.85;;;;;;;;;;10464734;28;20217;-71
2022/08/15 06:15:59;;;;;;;5.68;5.28;;;;;;;;;;10473947;28;20217;-71
2022/08/15 06:21:15;;;;;;;6.07;5.55;;;;;;;;;;10478248;28;20233;-72
2022/08/15 06:26:21;;;;;;;6.72;6.20;;;;;;;;;;10470120;28;20248;-72
2022/08/15 06:31:31;;;;;;;5.95;5.50;;;;;;;;;;10475335;28;20245;-70
2022/08/15 06:36:40;;;;;;;6.50;6.00;;;;;;;;;;10471412;28;20222;-70
2022/08/15 06:41:51;;;;;;;6.63;6.03;;;;;;;;;;10463655;28;20228;-70
2022/08/15 06:47:07;;;;;;;6.18;5.78;;;;;;;;;;10465463;28;20226;-70
2022/08/15 06:52:08;;;;;;;9.25;6.22;;;;;;;;;;10467649;28;20245;-70
2022/08/15 06:57:15;;;;;;;7.13;6.65;;;;;;;;;;10462216;28;20206;-71
2022/08/15 07:02:34;;;;;;;6.68;6.28;;;;;;;;;;10460045;28;20246;-70
2022/08/15 07:07:58;;;;;;;7.10;6.57;;;;;;;;;;10427486;28;20213;-70
2022/08/15 07:13:12;;;;;;;6.32;5.80;;;;;;;;;;10421846;28;20210;-71
2022/08/15 07:18:24;;;;;;;6.47;6.07;;;;;;;;;;10419233;28;20214;-70
2022/08/15 07:23:28;;;;;;;6.30;5.82;;;;;;;;;;10415418;28;20211;-69
2022/08/15 07:28:31;;;;;;;6.35;5.85;;;;;;;;;;10436530;28;20212;-70
2022/08/15 07:33:38;;;;;;;5.47;5.18;;;;;;;;;;10442565;28;20209;-70
2022/08/15 07:38:41;;;;;;;5.90;5.60;;;;;;;;;;10432540;28;20225;-70
2022/08/15 07:43:42;;;;;;;5.55;5.22;;;;;;;;;;10430069;28;20228;-71
2022/08/15 07:48:54;;;;;;;5.90;5.50;;;;;;;;;;10428789;28;20881;-70
2022/08/15 07:53:59;;;;;;;5.20;4.90;;;;;;;;;;10451899;28;20295;-69
2022/08/15 07:59:10;;;;;;;5.80;5.38;;;;;;;;;;10428129;28;20219;-69
2022/08/15 08:04:15;;;;;;;4.97;4.60;;;;;;;;;;10448924;28;20221;-69
2022/08/15 08:09:16;;;;;;;4.82;4.60;;;;;;;;;;10479989;28;20300;-69
2022/08/15 08:14:26;;;;;;;4.55;4.35;;;;;;;;;;10467920;28;20299;-69
2022/08/15 08:19:44;;;;;;;4.50;4.30;;;;;;;;;;10477593;28;20272;-69
2022/08/15 08:25:04;;;;;;;4.72;4.45;;;;;;;;;;10471292;28;20210;-71
2022/08/15 08:30:05;;;;;;;4.30;4.10;;;;;;;;;;10475476;28;20217;-71
2022/08/15 08:35:10;;;;;;;4.63;4.43;;;;;;;;;;10462917;28;20182;-68
2022/08/15 08:46:02;;;;;;;3.80;3.60;;;;;;;;;;10490409;28;20226;-67
2022/08/15 08:51:16;;;;;;;3.92;3.40;;;;;;;;;;10484874;28;20209;-66
2022/08/15 08:56:21;;;;;;;4.10;3.85;;;;;;;;;;10485693;28;20285;-68
2022/08/15 09:01:24;;;;;;;3.58;3.47;;;;;;;;;;10468989;28;21163;-71
2022/08/15 09:06:26;;;;;;;3.70;3.60;;;;;;;;;;10493828;28;20241;-69
2022/08/15 09:11:37;;;;;;;3.65;3.50;;;;;;;;;;10484809;28;20684;-69
2022/08/15 09:16:39;;;;;;;3.67;3.42;;;;;;;;;;10493608;28;20248;-69
2022/08/15 09:21:42;;;;;;;3.42;3.33;;;;;;;;;;10495851;28;20222;-69
2022/08/15 09:26:49;;;;;;;3.03;2.90;;;;;;;;;;10494757;28;20221;-69
2022/08/15 09:32:13;;;;;;;3.47;3.25;;;;;;;;;;10488538;28;20206;-70
2022/08/15 09:37:21;;;;;;;3.22;3.13;;;;;;;;;;10490615;28;20214;-69
2022/08/15 09:42:35;;;;;;;3.17;3.10;;;;;;;;;;10467785;28;20223;-69
2022/08/15 09:47:45;;;;;;;3.50;3.40;;;;;;;;;;10482569;28;20221;-69
2022/08/15 09:53:01;;;;;;;3.40;3.30;;;;;;;;;;10489259;28;20213;-68
2022/08/15 09:58:14;;;;;;;3.25;3.15;;;;;;;;;;10471888;28;20205;-69
2022/08/15 10:03:20;;;;;;;3.60;3.50;;;;;;;;;;10489707;28;20701;-69
2022/08/15 10:08:41;;;;;;;3.92;3.75;;;;;;;;;;10487146;28;20333;-69
2022/08/15 10:13:45;;;;;;;3.92;3.83;;;;;;;;;;10491443;28;20210;-70
2022/08/15 10:18:46;;;;;;;3.13;3.03;;;;;;;;;;10489960;28;20222;-70
2022/08/15 10:23:49;;;;;;;3.17;2.97;;;;;;;;;;10481646;28;20562;-70
2022/08/15 10:28:59;;;;;;;3.13;3.05;;;;;;;;;;10489369;28;20213;-69
2022/08/15 10:34:01;;;;;;;3.55;3.45;;;;;;;;;;10489936;28;20217;-68
2022/08/15 10:39:22;;;;;;;3.30;3.30;;;;;;;;;;10491384;28;21048;-69
2022/08/15 10:44:36;;;;;;;3.33;3.22;;;;;;;;;;10462744;28;20213;-69
2022/08/15 10:49:56;;;;;;;3.42;3.33;;;;;;;;;;10461295;28;20279;-68
2022/08/15 10:55:03;;;;;;;3.38;3.17;;;;;;;;;;10488654;28;20217;-69
2022/08/15 11:00:05;;;;;;;2.60;2.60;;;;;;;;;;10490007;28;20344;-69
2022/08/15 11:05:12;;;;;;;3.03;3.03;;;;;;;;;;10457564;28;20216;-68
2022/08/15 11:10:14;;;;;;;3.15;3.05;;;;;;;;;;10491055;28;20237;-68
2022/08/15 11:15:17;;;;;;;3.47;3.40;;;;;;;;;;10489913;28;20798;-67
2022/08/15 11:20:21;;;;;;;3.70;3.45;;;;;;;;;;10496499;28;20221;-69
2022/08/15 11:25:24;;;;;;;3.40;3.30;;;;;;;;;;10493292;28;20173;-67
2022/08/15 11:30:26;;;;;;;3.10;3.00;;;;;;;;;;10482090;28;20685;-70
2022/08/15 11:35:29;;;;;;;3.42;3.33;;;;;;;;;;10481359;28;20170;-70
2022/08/15 11:40:33;;;;;;;3.20;3.10;;;;;;;;;;10481312;28;20230;-70
2022/08/15 11:45:36;;;;;;;3.30;3.20;;;;;;;;;;10488885;28;20213;-70
2022/08/15 11:50:38;;;;;;;3.58;3.47;;;;;;;;;;10483899;28;20858;-69
2022/08/15 11:55:47;;;;;;;3.15;3.05;;;;;;;;;;10488168;28;20762;-68
2022/08/15 12:00:49;;;;;;;3.13;3.13;;;;;;;;;;10492812;28;20273;-69
2022/08/15 12:05:52;;;;;;;3.88;3.78;;;;;;;;;;10486641;28;20225;-70
2022/08/15 12:11:01;;;;;;;3.45;3.33;;;;;;;;;;10488708;28;20217;-70
2022/08/15 12:16:03;;;;;;;3.55;3.45;;;;;;;;;;10491382;28;20214;-69
2022/08/15 12:21:06;;;;;;;3.78;3.67;;;;;;;;;;10496426;28;21054;-70
2022/08/15 12:26:08;;;;;;;2.83;2.78;;;;;;;;;;10505057;28;20690;-69
2022/08/15 12:31:12;;;;;;;3.58;3.42;;;;;;;;;;10497189;28;20217;-69
2022/08/15 12:36:13;;;;;;;3.13;3.03;;;;;;;;;;10497273;28;20213;-69
2022/08/15 12:41:14;;;;;;;3.20;3.20;;;;;;;;;;10495984;28;20249;-70
2022/08/15 12:46:15;;;;;;;3.28;3.28;;;;;;;;;;10507241;28;20272;-69
2022/08/15 12:51:17;;;;;;;3.72;3.42;;;;;;;;;;10497112;28;20209;-69
2022/08/15 12:56:19;;;;;;;3.80;3.35;;;;;;;;;;10499006;28;20260;-69
2022/08/15 13:01:20;;;;;;;3.35;3.25;;;;;;;;;;10466450;28;20671;-69
2022/08/15 13:06:21;;;;;;;3.25;3.15;;;;;;;;;;10491010;28;20226;-69
2022/08/15 13:11:22;;;;;;;2.63;2.63;;;;;;;;;;10489385;28;20218;-69
2022/08/15 13:16:24;;;;;;;3.22;3.05;;;;;;;;;;10494425;28;21188;-69
2022/08/15 13:26:46;;;;;;;3.65;3.47;;;;;;;;;;10491652;28;20694;-69
2022/08/15 13:31:47;;;;;;;3.80;3.60;;;;;;;;;;10481004;28;20214;-70
2022/08/15 13:36:50;;;;;;;3.45;3.35;;;;;;;;;;10492357;28;20212;-70
2022/08/15 13:41:52;;;;;;;4.35;4.05;;;;;;;;;;10500166;28;20222;-69
2022/08/15 13:46:53;;;;;;;3.85;3.55;;;;;;;;;;10486392;28;20214;-70
2022/08/15 13:51:56;;;;;;;3.30;3.20;;;;;;;;;;10496462;28;20218;-72
2022/08/15 13:56:57;;;;;;;3.50;3.33;;;;;;;;;;10492071;28;20236;-70
2022/08/15 14:01:59;;;;;;;3.00;2.90;;;;;;;;;;10496317;28;20277;-71
2022/08/15 14:07:00;;;;;;;2.72;2.72;;;;;;;;;;10497043;28;20216;-70
2022/08/15 14:12:03;;;;;;;3.05;3.05;;;;;;;;;;10500398;28;20294;-70
2022/08/15 14:17:06;;;;;;;3.58;3.47;;;;;;;;;;10475473;28;20717;-69
2022/08/15 14:22:08;;;;;;;2.70;2.70;;;;;;;;;;10455624;28;20278;-68
2022/08/15 14:27:09;;;;;;;2.33;2.17;;;;;;;;;;10486953;28;20210;-70
2022/08/15 14:32:12;;;;;;;2.67;2.58;;;;;;;;;;10454867;28;20213;-69
2022/08/15 14:37:14;;;;;;;2.58;2.47;;;;;;;;;;10482614;28;20275;-69
2022/08/15 14:42:16;;;;;;;2.75;2.55;;;;;;;;;;10482968;28;20657;-70
2022/08/15 14:47:18;;;;;;;2.80;2.38;;;;;;;;;;10490388;28;20225;-74
2022/08/15 14:52:19;;;;;;;2.35;2.10;;;;;;;;;;10458633;28;20236;-74
2022/08/15 14:57:21;;;;;;;2.35;2.35;;;;;;;;;;10471571;28;20245;-71
2022/08/15 15:02:22;;;;;;;2.97;2.88;;;;;;;;;;10466928;28;20253;-70
2022/08/15 15:07:23;;;;;;;2.30;2.22;;;;;;;;;;10485153;28;20884;-69
2022/08/15 15:12:24;;;;;;;4.05;3.85;;;;;;;;;;10487661;28;20316;-65
2022/08/15 15:17:25;;;;;;;4.20;3.97;;;;;;;;;;10485391;28;20218;-63
2022/08/15 15:22:27;;;;;;;6.07;5.53;;;;;;;;;;10491645;28;21186;-65
2022/08/15 15:27:28;;;;;;;4.57;4.28;;;;;;;;;;10487319;28;21133;-65
2022/08/15 15:32:29;;;;;;;4.60;4.35;;;;;;;;;;10483750;28;20214;-62
2022/08/15 15:37:31;;;;;;;4.80;4.50;;;;;;;;;;10482614;28;21055;-62
2022/08/15 15:42:32;;;;;;;4.95;4.63;;;;;;;;;;10490971;28;20522;-61
2022/08/15 15:47:33;;;;;;;4.65;4.45;;;;;;;;;;10458201;28;20274;-62
2022/08/15 15:52:37;;;;;;;5.63;5.05;;;;;;;;;;10495050;28;20709;-63
2022/08/15 15:57:39;;;;;;;5.13;4.72;;;;;;;;;;10499468;28;20648;-66
2022/08/15 16:02:43;;;;;;;3.72;3.60;;;;;;;;;;10498575;28;20238;-66
2022/08/15 16:07:44;;;;;;;4.25;4.05;;;;;;;;;;10468041;28;20226;-66
2022/08/15 16:12:46;;;;;;;4.72;4.43;;;;;;;;;;10498348;28;20209;-65
2022/08/15 16:17:49;;;;;;;5.03;4.72;;;;;;;;;;10501987;28;20224;-66
2022/08/15 16:23:01;;;;;;;5.03;4.72;;;;;;;;;;10494112;28;20253;-64
2022/08/15 16:28:05;;;;;;;4.45;4.25;;;;;;;;;;10475783;28;20301;-66
2022/08/15 16:33:12;;;;;;;5.10;4.68;;;;;;;;;;10470791;28;20214;-67
2022/08/15 16:38:35;;;;;;;5.82;5.43;;;;;;;;;;10499761;28;20216;-66
2022/08/15 16:43:38;;;;;;;5.00;4.60;;;;;;;;;;10499237;28;20233;-66
2022/08/15 16:48:52;;;;;;;4.45;4.25;;;;;;;;;;10487042;28;20263;-66
2022/08/15 16:53:53;;;;;;;4.60;4.35;;;;;;;;;;10495142;28;20222;-66
2022/08/15 16:58:59;;;;;;;6.63;6.13;;;;;;;;;;10499889;28;21480;-67
2022/08/15 17:04:07;;;;;;;6.32;5.63;;;;;;;;;;10484706;28;20228;-66
2022/08/15 17:09:09;;;;;;;5.95;5.55;;;;;;;;;;10478255;28;20223;-66
2022/08/15 17:14:21;;;;;;;4.93;4.63;;;;;;;;;;10488587;28;20218;-63
2022/08/15 17:19:25;;;;;;;4.53;4.25;;;;;;;;;;10482421;28;21125;-67
2022/08/15 17:24:38;;;;;;;5.53;5.13;;;;;;;;;;10493817;28;20233;-66
2022/08/15 17:29:41;;;;;;;4.65;4.35;;;;;;;;;;10461463;28;20220;-67
2022/08/15 17:34:44;;;;;;;5.32;5.03;;;;;;;;;;10495329;28;20222;-66
2022/08/15 17:39:57;;;;;;;4.80;4.50;;;;;;;;;;10496239;28;20213;-66
2022/08/15 17:45:06;;;;;;;4.20;4.00;;;;;;;;;;10487901;28;20241;-66
2022/08/15 17:50:13;;;;;;;3.95;3.75;;;;;;;;;;10495948;28;20233;-66
2022/08/15 17:55:17;;;;;;;3.60;3.42;;;;;;;;;;10467988;28;20175;-67
2022/08/15 18:00:24;;;;;;;4.28;4.07;;;;;;;;;;10496027;28;20217;-66
2022/08/15 18:05:26;;;;;;;4.63;4.30;;;;;;;;;;10495028;28;20257;-67
2022/08/15 18:10:39;;;;;;;5.40;5.10;;;;;;;;;;10465970;28;20221;-66
2022/08/15 18:15:58;;;;;;;4.60;4.30;;;;;;;;;;10495507;28;20206;-67
2022/08/15 18:21:04;;;;;;;3.78;3.67;;;;;;;;;;10493302;28;20221;-67
2022/08/15 18:26:20;;;;;;;4.57;4.38;;;;;;;;;;10489601;28;20244;-68
2022/08/15 18:31:23;;;;;;;4.53;4.22;;;;;;;;;;10496829;28;20217;-68
2022/08/15 18:36:43;;;;;;;3.97;3.88;;;;;;;;;;10497059;28;20726;-67
2022/08/15 18:41:44;;;;;;;4.57;4.28;;;;;;;;;;10492097;28;20336;-65
2022/08/15 18:46:56;;;;;;;4.55;4.35;;;;;;;;;;10486471;28;20223;-64
2022/08/15 18:52:22;;;;;;;3.88;3.67;;;;;;;;;;10492343;28;20225;-66
2022/08/15 18:57:23;;;;;;;4.05;3.85;;;;;;;;;;10491591;28;20221;-65
2022/08/15 19:02:28;;;;;;;4.95;4.65;;;;;;;;;;10486130;28;20929;-67
2022/08/15 19:07:29;;;;;;;5.63;5.22;;;;;;;;;;10447343;28;20328;-69
2022/08/15 19:12:42;;;;;;;7.32;6.72;;;;;;;;;;10449256;28;20222;-67
2022/08/15 19:17:59;;;;;;;6.13;5.55;;;;;;;;;;10451358;28;20235;-70
2022/08/15 19:23:02;;;;;;;4.30;4.18;;;;;;;;;;10450449;28;20218;-71
2022/08/15 19:28:14;;;;;;;5.30;4.97;;;;;;;;;;10441101;28;20217;-68
2022/08/15 19:33:27;;;;;;;5.57;5.28;;;;;;;;;;10446089;28;20215;-69
2022/08/15 19:38:38;;;;;;;5.20;4.90;;;;;;;;;;10451324;28;20219;-68
2022/08/15 19:43:48;;;;;;;5.88;5.53;;;;;;;;;;10448004;28;20718;-67
2022/08/15 19:48:55;;;;;;;4.88;4.68;;;;;;;;;;10448989;28;20237;-65
2022/08/15 19:53:56;;;;;;;5.63;5.28;;;;;;;;;;10445895;28;20214;-67
2022/08/15 19:59:02;;;;;;;5.38;5.07;;;;;;;;;;10447801;28;20214;-67
2022/08/15 20:04:11;;;;;;;5.80;5.40;;;;;;;;;;10461371;28;20230;-70
2022/08/15 20:09:21;;;;;;;6.45;5.95;;;;;;;;;;10488182;28;20206;-70
2022/08/15 20:14:34;;;;;;;5.78;5.43;;;;;;;;;;10494201;28;20407;-66
2022/08/15 20:19:35;;;;;;;7.47;6.88;;;;;;;;;;10494233;28;20222;-65
2022/08/15 20:24:56;;;;;;;7.97;7.38;;;;;;;;;;10491607;28;20206;-66
2022/08/15 20:30:05;;;;;;;7.43;6.75;;;;;;;;;;10475954;28;20216;-66
2022/08/15 20:35:15;;;;;;;5.75;5.38;;;;;;;;;;10465862;28;20240;-67
2022/08/15 20:40:18;;;;;;;6.53;6.13;;;;;;;;;;10480317;28;20226;-67
2022/08/15 20:45:24;;;;;;;5.63;5.32;;;;;;;;;;10496868;28;20177;-67
2022/08/15 20:50:26;;;;;;;6.78;6.18;;;;;;;;;;10501726;28;20309;-67
2022/08/15 20:55:34;;;;;;;6.55;5.72;;;;;;;;;;10492057;28;20196;-66
2022/08/15 21:00:54;;;;;;;6.45;5.90;;;;;;;;;;10480835;28;20217;-67
2022/08/15 21:05:57;;;;;;;6.53;5.97;;;;;;;;;;10499920;28;20263;-66
2022/08/15 21:10:59;;;;;;;6.47;6.07;;;;;;;;;;10497986;28;20206;-66
2022/08/15 21:16:19;;;;;;;6.30;5.80;;;;;;;;;;10454126;28;20206;-66
2022/08/15 21:21:23;;;;;;;6.05;5.70;;;;;;;;;;10469132;28;20751;-66
2022/08/15 21:26:27;;;;;;;6.65;6.18;;;;;;;;;;10501765;28;20216;-67
2022/08/15 21:31:36;;;;;;;5.60;5.20;;;;;;;;;;10495294;28;20218;-67
2022/08/15 21:36:47;;;;;;;6.55;6.07;;;;;;;;;;10465278;28;20746;-67
2022/08/15 21:41:49;;;;;;;6.20;5.80;;;;;;;;;;10496738;28;20228;-67
2022/08/15 21:46:50;;;;;;;5.88;5.53;;;;;;;;;;10497483;28;20213;-67
2022/08/15 21:51:55;;;;;;;6.40;5.97;;;;;;;;;;10490760;28;20228;-67
2022/08/15 21:57:07;;;;;;;5.65;5.28;;;;;;;;;;10493507;28;20202;-67
2022/08/15 22:02:08;;;;;;;5.45;5.15;;;;;;;;;;10494919;28;20587;-67
2022/08/15 22:07:11;;;;;;;5.82;5.50;;;;;;;;;;10497040;28;20210;-66
2022/08/15 22:12:27;;;;;;;6.25;5.70;;;;;;;;;;10477883;28;20552;-67
2022/08/15 22:17:28;;;;;;;5.60;5.30;;;;;;;;;;10498833;28;20228;-67
2022/08/15 22:22:29;;;;;;;6.20;5.80;;;;;;;;;;10494002;28;20244;-67
2022/08/15 22:27:31;;;;;;;7.05;6.45;;;;;;;;;;10494921;28;20243;-67
2022/08/15 22:32:32;;;;;;;6.65;6.03;;;;;;;;;;10495942;28;20216;-66
2022/08/15 22:37:33;;;;;;;8.20;7.57;;;;;;;;;;10495278;28;20867;-67
2022/08/15 22:42:37;;;;;;;8.45;7.60;;;;;;;;;;10493994;28;20277;-67
2022/08/15 22:47:38;;;;;;;7.25;6.47;;;;;;;;;;10493852;28;20713;-66
2022/08/15 22:52:39;;;;;;;7.35;6.65;;;;;;;;;;10492208;28;20217;-66
2022/08/15 22:57:41;;;;;;;7.85;7.15;;;;;;;;;;10488862;28;20642;-67
2022/08/15 23:02:42;;;;;;;9.02;8.23;;;;;;;;;;10493999;28;20237;-67
2022/08/15 23:08:02;;;;;;;8.05;7.22;;;;;;;;;;10461334;28;20274;-66
2022/08/15 23:13:09;;;;;;;8.05;7.30;;;;;;;;;;10479043;28;20252;-65
2022/08/15 23:18:15;;;;;;;8.88;8.02;;;;;;;;;;10494342;28;20705;-65
2022/08/15 23:23:20;;;;;;;8.65;7.90;;;;;;;;;;10495530;28;20213;-65
2022/08/15 23:28:35;;;;;;;8.75;8.05;;;;;;;;;;10465713;28;20218;-66
2022/08/15 23:33:38;;;;;;;7.63;6.90;;;;;;;;;;10493973;28;20766;-67
2022/08/15 23:38:39;;;;;;;7.78;7.07;;;;;;;;;;10496165;28;20293;-67
2022/08/15 23:43:40;;;;;;;7.72;7.13;;;;;;;;;;10497349;28;20244;-66
2022/08/15 23:48:41;;;;;;;8.88;7.57;;;;;;;;;;10494740;28;20240;-67
2022/08/15 23:53:42;;;;;;;7.75;7.03;;;;;;;;;;10492997;28;20213;-66
2022/08/15 23:58:43;;;;;;;8.82;8.02;;;;;;;;;;10493886;28;20223;-67
